sensor_id;sensor_type;location;lat;lon;timestamp;temperature;humidity
22108;DHT22;11220;48.812;9.128;2022-09-09T00:04:33;22.00;90.10
22108;DHT22;11220;48.812;9.128;2022-09-09T00:07:25;22.00;90.10
22108;DHT22;11220;48.812;9.128;2022-09-09T00:15:00;22.10;90.20
22108;DHT22;11220;48.812;9.128;2022-09-09T00:17:46;22.00;90.10
22108;DHT22;11220;48.812;9.128;2022-09-09T00:23:30;22.00;90.10
22108;DHT22;11220;48.812;9.128;2022-09-09T00:26:36;22.00;90.10
22108;DHT22;11220;48.812;9.128;2022-09-09T00:31:38;22.00;90.10
22108;DHT22;11220;48.812;9.128;2022-09-09T00:34:13;21.90;90.10
22108;DHT22;11220;48.812;9.128;2022-09-09T00:36:42;22.00;90.10
22108;DHT22;11220;48.812;9.128;2022-09-09T00:39:37;22.10;90.20
22108;DHT22;11220;48.812;9.128;2022-09-09T00:44:51;22.00;90.20
22108;DHT22;11220;48.812;9.128;2022-09-09T00:50:09;22.00;90.20
22108;DHT22;11220;48.812;9.128;2022-09-09T00:52:59;22.00;90.20
22108;DHT22;11220;48.812;9.128;2022-09-09T00:58:02;22.00;90.20
22108;DHT22;11220;48.812;9.128;2022-09-09T01:00:31;22.00;90.20
22108;DHT22;11220;48.812;9.128;2022-09-09T01:03:02;22.00;90.20
22108;DHT22;11220;48.812;9.128;2022-09-09T01:05:39;22.00;90.20
22108;DHT22;11220;48.812;9.128;2022-09-09T01:14:19;22.00;90.20
22108;DHT22;11220;48.812;9.128;2022-09-09T01:16:46;21.90;90.20
22108;DHT22;11220;48.812;9.128;2022-09-09T01:19:20;22.00;90.20
22108;DHT22;11220;48.812;9.128;2022-09-09T01:22:33;22.30;90.30
22108;DHT22;11220;48.812;9.128;2022-09-09T01:24:38;22.00;90.20
22108;DHT22;11220;48.812;9.128;2022-09-09T01:27:06;21.90;90.20
22108;DHT22;11220;48.812;9.128;2022-09-09T01:29:33;21.90;90.20
22108;DHT22;11220;48.812;9.128;2022-09-09T01:35:03;21.90;90.20
22108;DHT22;11220;48.812;9.128;2022-09-09T01:37:29;21.90;90.20
22108;DHT22;11220;48.812;9.128;2022-09-09T01:39:54;21.90;90.20
22108;DHT22;11220;48.812;9.128;2022-09-09T01:42:20;21.90;90.40
22108;DHT22;11220;48.812;9.128;2022-09-09T01:44:45;21.90;90.20
22108;DHT22;11220;48.812;9.128;2022-09-09T01:47:11;21.90;90.20
22108;DHT22;11220;48.812;9.128;2022-09-09T01:49:37;21.90;90.20
22108;DHT22;11220;48.812;9.128;2022-09-09T01:52:03;22.10;90.30
22108;DHT22;11220;48.812;9.128;2022-09-09T01:54:31;21.90;90.20
22108;DHT22;11220;48.812;9.128;2022-09-09T01:57:22;21.90;90.20
22108;DHT22;11220;48.812;9.128;2022-09-09T01:59:54;21.90;90.20
22108;DHT22;11220;48.812;9.128;2022-09-09T02:02:30;21.90;90.30
22108;DHT22;11220;48.812;9.128;2022-09-09T02:05:11;21.90;90.20
22108;DHT22;11220;48.812;9.128;2022-09-09T02:07:49;21.90;90.30
22108;DHT22;11220;48.812;9.128;2022-09-09T02:10:26;21.90;90.30
22108;DHT22;11220;48.812;9.128;2022-09-09T02:13:12;21.80;90.30
22108;DHT22;11220;48.812;9.128;2022-09-09T02:15:55;21.90;90.30
22108;DHT22;11220;48.812;9.128;2022-09-09T02:18:28;21.90;90.30
22108;DHT22;11220;48.812;9.128;2022-09-09T02:20:56;22.00;90.30
22108;DHT22;11220;48.812;9.128;2022-09-09T02:23:23;21.90;90.30
22108;DHT22;11220;48.812;9.128;2022-09-09T02:25:50;21.90;90.30
22108;DHT22;11220;48.812;9.128;2022-09-09T02:28:18;22.10;90.40
22108;DHT22;11220;48.812;9.128;2022-09-09T02:30:47;21.90;90.30
22108;DHT22;11220;48.812;9.128;2022-09-09T02:33:24;21.90;90.30
22108;DHT22;11220;48.812;9.128;2022-09-09T02:35:52;21.90;90.40
22108;DHT22;11220;48.812;9.128;2022-09-09T02:38:23;21.90;90.30
22108;DHT22;11220;48.812;9.128;2022-09-09T02:40:51;21.90;90.40
22108;DHT22;11220;48.812;9.128;2022-09-09T02:43:17;21.90;90.40
22108;DHT22;11220;48.812;9.128;2022-09-09T02:51:18;22.20;90.50
22108;DHT22;11220;48.812;9.128;2022-09-09T02:53:56;21.80;90.30
22108;DHT22;11220;48.812;9.128;2022-09-09T02:56:26;21.80;90.40
22108;DHT22;11220;48.812;9.128;2022-09-09T02:58:54;21.80;90.30
22108;DHT22;11220;48.812;9.128;2022-09-09T03:01:21;21.80;90.40
22108;DHT22;11220;48.812;9.128;2022-09-09T03:03:46;21.80;90.40
22108;DHT22;11220;48.812;9.128;2022-09-09T03:06:12;21.90;90.40
22108;DHT22;11220;48.812;9.128;2022-09-09T03:08:38;22.60;90.60
22108;DHT22;11220;48.812;9.128;2022-09-09T03:11:03;21.80;90.40
22108;DHT22;11220;48.812;9.128;2022-09-09T03:13:29;21.80;90.40
22108;DHT22;11220;48.812;9.128;2022-09-09T03:15:55;21.80;90.40
22108;DHT22;11220;48.812;9.128;2022-09-09T03:18:20;21.80;90.40
22108;DHT22;11220;48.812;9.128;2022-09-09T03:20:46;21.80;90.40
22108;DHT22;11220;48.812;9.128;2022-09-09T03:23:16;21.70;90.40
22108;DHT22;11220;48.812;9.128;2022-09-09T03:25:48;21.80;90.40
22108;DHT22;11220;48.812;9.128;2022-09-09T03:28:14;21.90;90.50
22108;DHT22;11220;48.812;9.128;2022-09-09T03:30:40;21.80;90.40
22108;DHT22;11220;48.812;9.128;2022-09-09T03:33:06;21.80;90.40
22108;DHT22;11220;48.812;9.128;2022-09-09T03:35:31;21.70;90.40
22108;DHT22;11220;48.812;9.128;2022-09-09T03:37:57;21.70;90.40
22108;DHT22;11220;48.812;9.128;2022-09-09T03:40:22;21.80;90.40
22108;DHT22;11220;48.812;9.128;2022-09-09T03:42:48;21.80;90.40
22108;DHT22;11220;48.812;9.128;2022-09-09T03:45:14;21.80;90.50
22108;DHT22;11220;48.812;9.128;2022-09-09T03:47:40;21.80;90.50
22108;DHT22;11220;48.812;9.128;2022-09-09T03:50:07;21.80;90.50
22108;DHT22;11220;48.812;9.128;2022-09-09T03:52:36;21.80;90.50
22108;DHT22;11220;48.812;9.128;2022-09-09T03:55:01;21.70;90.60
22108;DHT22;11220;48.812;9.128;2022-09-09T03:57:27;21.70;90.50
22108;DHT22;11220;48.812;9.128;2022-09-09T03:59:53;21.80;90.50
22108;DHT22;11220;48.812;9.128;2022-09-09T04:02:18;21.80;90.50
22108;DHT22;11220;48.812;9.128;2022-09-09T04:04:43;21.70;90.50
22108;DHT22;11220;48.812;9.128;2022-09-09T04:07:09;21.70;90.50
22108;DHT22;11220;48.812;9.128;2022-09-09T04:09:35;21.70;90.50
22108;DHT22;11220;48.812;9.128;2022-09-09T04:12:00;21.70;90.50
22108;DHT22;11220;48.812;9.128;2022-09-09T04:14:28;21.70;90.50
22108;DHT22;11220;48.812;9.128;2022-09-09T04:16:54;21.70;90.50
22108;DHT22;11220;48.812;9.128;2022-09-09T04:19:19;21.70;90.50
22108;DHT22;11220;48.812;9.128;2022-09-09T04:21:45;21.70;90.50
22108;DHT22;11220;48.812;9.128;2022-09-09T04:24:10;21.70;90.50
22108;DHT22;11220;48.812;9.128;2022-09-09T04:26:36;21.70;90.50
22108;DHT22;11220;48.812;9.128;2022-09-09T04:29:03;21.70;90.50
22108;DHT22;11220;48.812;9.128;2022-09-09T04:31:29;21.70;90.50
22108;DHT22;11220;48.812;9.128;2022-09-09T04:33:55;21.70;90.50
22108;DHT22;11220;48.812;9.128;2022-09-09T04:36:20;21.70;90.50
22108;DHT22;11220;48.812;9.128;2022-09-09T04:38:46;21.70;90.50
22108;DHT22;11220;48.812;9.128;2022-09-09T04:41:14;21.70;90.50
22108;DHT22;11220;48.812;9.128;2022-09-09T04:43:41;21.70;90.50
22108;DHT22;11220;48.812;9.128;2022-09-09T04:46:07;21.70;90.50
22108;DHT22;11220;48.812;9.128;2022-09-09T04:48:33;21.70;90.50
22108;DHT22;11220;48.812;9.128;2022-09-09T04:51:01;21.70;90.50
22108;DHT22;11220;48.812;9.128;2022-09-09T04:53:27;21.70;90.60
22108;DHT22;11220;48.812;9.128;2022-09-09T04:56:04;21.60;90.50
22108;DHT22;11220;48.812;9.128;2022-09-09T04:58:30;21.60;90.50
22108;DHT22;11220;48.812;9.128;2022-09-09T05:01:03;21.70;90.50
22108;DHT22;11220;48.812;9.128;2022-09-09T05:03:29;21.70;90.50
22108;DHT22;11220;48.812;9.128;2022-09-09T05:06:05;21.70;90.60
22108;DHT22;11220;48.812;9.128;2022-09-09T05:08:31;21.70;90.60
22108;DHT22;11220;48.812;9.128;2022-09-09T05:10:57;21.60;90.50
22108;DHT22;11220;48.812;9.128;2022-09-09T05:13:25;21.60;90.50
22108;DHT22;11220;48.812;9.128;2022-09-09T05:15:54;21.70;90.60
22108;DHT22;11220;48.812;9.128;2022-09-09T05:18:20;21.60;90.50
22108;DHT22;11220;48.812;9.128;2022-09-09T05:20:48;21.60;90.50
22108;DHT22;11220;48.812;9.128;2022-09-09T05:23:13;21.60;90.50
22108;DHT22;11220;48.812;9.128;2022-09-09T05:25:40;21.60;90.50
22108;DHT22;11220;48.812;9.128;2022-09-09T05:28:06;21.70;90.60
22108;DHT22;11220;48.812;9.128;2022-09-09T05:30:33;21.70;90.60
22108;DHT22;11220;48.812;9.128;2022-09-09T05:32:59;21.60;90.50
22108;DHT22;11220;48.812;9.128;2022-09-09T05:35:24;21.60;90.50
22108;DHT22;11220;48.812;9.128;2022-09-09T05:37:50;21.60;90.50
22108;DHT22;11220;48.812;9.128;2022-09-09T05:40:16;21.60;90.50
22108;DHT22;11220;48.812;9.128;2022-09-09T05:42:41;21.80;90.60
22108;DHT22;11220;48.812;9.128;2022-09-09T05:45:08;22.10;90.70
22108;DHT22;11220;48.812;9.128;2022-09-09T05:47:34;21.60;90.50
22108;DHT22;11220;48.812;9.128;2022-09-09T05:50:00;21.60;90.50
22108;DHT22;11220;48.812;9.128;2022-09-09T05:52:26;21.60;90.60
22108;DHT22;11220;48.812;9.128;2022-09-09T05:54:52;21.60;90.60
22108;DHT22;11220;48.812;9.128;2022-09-09T05:57:20;21.60;90.60
22108;DHT22;11220;48.812;9.128;2022-09-09T05:59:45;21.90;90.70
22108;DHT22;11220;48.812;9.128;2022-09-09T06:02:11;21.70;90.60
22108;DHT22;11220;48.812;9.128;2022-09-09T06:04:38;22.40;90.80
22108;DHT22;11220;48.812;9.128;2022-09-09T06:07:04;21.70;90.60
22108;DHT22;11220;48.812;9.128;2022-09-09T06:09:30;21.70;90.60
22108;DHT22;11220;48.812;9.128;2022-09-09T06:11:55;21.60;90.60
22108;DHT22;11220;48.812;9.128;2022-09-09T06:14:22;21.60;90.60
22108;DHT22;11220;48.812;9.128;2022-09-09T06:16:48;21.70;90.60
22108;DHT22;11220;48.812;9.128;2022-09-09T06:19:14;21.70;90.60
22108;DHT22;11220;48.812;9.128;2022-09-09T06:21:39;21.60;90.60
22108;DHT22;11220;48.812;9.128;2022-09-09T06:24:06;21.60;90.60
22108;DHT22;11220;48.812;9.128;2022-09-09T06:26:37;21.60;90.60
22108;DHT22;11220;48.812;9.128;2022-09-09T06:29:04;21.70;90.70
22108;DHT22;11220;48.812;9.128;2022-09-09T06:31:31;21.60;89.90
22108;DHT22;11220;48.812;9.128;2022-09-09T06:33:59;21.70;89.90
22108;DHT22;11220;48.812;9.128;2022-09-09T06:36:28;21.60;90.00
22108;DHT22;11220;48.812;9.128;2022-09-09T06:38:54;21.60;90.20
22108;DHT22;11220;48.812;9.128;2022-09-09T06:41:23;21.60;90.20
22108;DHT22;11220;48.812;9.128;2022-09-09T06:43:49;21.60;90.30
22108;DHT22;11220;48.812;9.128;2022-09-09T06:46:17;21.60;90.30
22108;DHT22;11220;48.812;9.128;2022-09-09T06:48:44;21.60;90.30
22108;DHT22;11220;48.812;9.128;2022-09-09T06:51:11;21.70;90.40
22108;DHT22;11220;48.812;9.128;2022-09-09T06:53:39;21.60;90.30
22108;DHT22;11220;48.812;9.128;2022-09-09T06:56:26;21.70;90.40
22108;DHT22;11220;48.812;9.128;2022-09-09T06:58:54;21.70;90.30
22108;DHT22;11220;48.812;9.128;2022-09-09T07:01:23;21.60;90.30
22108;DHT22;11220;48.812;9.128;2022-09-09T07:03:53;21.60;90.30
22108;DHT22;11220;48.812;9.128;2022-09-09T07:06:27;21.60;90.20
22108;DHT22;11220;48.812;9.128;2022-09-09T07:08:55;21.70;90.20
22108;DHT22;11220;48.812;9.128;2022-09-09T07:11:22;21.80;90.20
22108;DHT22;11220;48.812;9.128;2022-09-09T07:13:48;21.60;90.10
22108;DHT22;11220;48.812;9.128;2022-09-09T07:16:16;21.70;90.10
22108;DHT22;11220;48.812;9.128;2022-09-09T07:18:43;21.60;90.10
22108;DHT22;11220;48.812;9.128;2022-09-09T07:21:13;21.70;90.10
22108;DHT22;11220;48.812;9.128;2022-09-09T07:23:39;21.70;90.10
22108;DHT22;11220;48.812;9.128;2022-09-09T07:26:19;21.70;90.10
22108;DHT22;11220;48.812;9.128;2022-09-09T07:28:46;21.60;90.00
22108;DHT22;11220;48.812;9.128;2022-09-09T07:31:30;21.70;90.10
22108;DHT22;11220;48.812;9.128;2022-09-09T07:33:56;21.70;90.00
22108;DHT22;11220;48.812;9.128;2022-09-09T07:36:24;21.70;90.00
22108;DHT22;11220;48.812;9.128;2022-09-09T07:38:58;21.70;90.00
22108;DHT22;11220;48.812;9.128;2022-09-09T07:41:30;21.70;90.00
22108;DHT22;11220;48.812;9.128;2022-09-09T07:43:57;21.70;90.00
22108;DHT22;11220;48.812;9.128;2022-09-09T07:46:25;21.70;90.00
22108;DHT22;11220;48.812;9.128;2022-09-09T07:48:53;21.80;90.00
22108;DHT22;11220;48.812;9.128;2022-09-09T07:51:27;21.70;90.00
22108;DHT22;11220;48.812;9.128;2022-09-09T07:54:03;21.70;90.00
22108;DHT22;11220;48.812;9.128;2022-09-09T07:56:30;21.70;90.00
22108;DHT22;11220;48.812;9.128;2022-09-09T07:58:56;22.10;90.10
22108;DHT22;11220;48.812;9.128;2022-09-09T08:01:31;22.60;90.20
22108;DHT22;11220;48.812;9.128;2022-09-09T08:04:18;23.20;90.40
22108;DHT22;11220;48.812;9.128;2022-09-09T08:06:49;21.70;89.80
22108;DHT22;11220;48.812;9.128;2022-09-09T08:09:15;21.80;89.90
22108;DHT22;11220;48.812;9.128;2022-09-09T08:11:42;21.80;89.90
22108;DHT22;11220;48.812;9.128;2022-09-09T08:14:09;21.80;89.90
22108;DHT22;11220;48.812;9.128;2022-09-09T08:16:37;21.80;90.00
22108;DHT22;11220;48.812;9.128;2022-09-09T08:19:04;21.80;90.00
22108;DHT22;11220;48.812;9.128;2022-09-09T08:21:31;21.80;90.00
22108;DHT22;11220;48.812;9.128;2022-09-09T08:23:59;21.80;90.00
22108;DHT22;11220;48.812;9.128;2022-09-09T08:26:31;21.80;90.00
22108;DHT22;11220;48.812;9.128;2022-09-09T08:28:58;21.80;90.10
22108;DHT22;11220;48.812;9.128;2022-09-09T08:33:51;21.80;90.10
22108;DHT22;11220;48.812;9.128;2022-09-09T08:36:22;21.80;90.10
22108;DHT22;11220;48.812;9.128;2022-09-09T08:38:51;21.80;90.10
22108;DHT22;11220;48.812;9.128;2022-09-09T08:44:10;21.80;90.20
22108;DHT22;11220;48.812;9.128;2022-09-09T08:49:55;21.80;90.20
22108;DHT22;11220;48.812;9.128;2022-09-09T08:52:49;21.80;90.20
22108;DHT22;11220;48.812;9.128;2022-09-09T08:55:44;21.80;90.20
22108;DHT22;11220;48.812;9.128;2022-09-09T08:58:27;21.80;90.30
22108;DHT22;11220;48.812;9.128;2022-09-09T09:06:47;21.90;90.30
22108;DHT22;11220;48.812;9.128;2022-09-09T09:09:46;21.90;90.30
22108;DHT22;11220;48.812;9.128;2022-09-09T09:12:19;21.90;90.30
22108;DHT22;11220;48.812;9.128;2022-09-09T09:14:47;21.90;90.30
22108;DHT22;11220;48.812;9.128;2022-09-09T09:19:41;21.90;90.30
22108;DHT22;11220;48.812;9.128;2022-09-09T09:29:57;21.90;90.40
22108;DHT22;11220;48.812;9.128;2022-09-09T09:32:24;21.90;90.40
22108;DHT22;11220;48.812;9.128;2022-09-09T09:34:56;22.30;90.50
22108;DHT22;11220;48.812;9.128;2022-09-09T09:37:30;21.90;90.40
22108;DHT22;11220;48.812;9.128;2022-09-09T09:40:20;22.00;90.40
22108;DHT22;11220;48.812;9.128;2022-09-09T09:45:34;21.90;90.40
22108;DHT22;11220;48.812;9.128;2022-09-09T09:48:01;21.90;90.40
22108;DHT22;11220;48.812;9.128;2022-09-09T09:50:27;22.00;90.40
22108;DHT22;11220;48.812;9.128;2022-09-09T09:52:55;22.80;90.70
22108;DHT22;11220;48.812;9.128;2022-09-09T09:55:21;23.10;90.80
22108;DHT22;11220;48.812;9.128;2022-09-09T09:57:48;22.70;90.70
22108;DHT22;11220;48.812;9.128;2022-09-09T10:00:20;22.40;90.60
22108;DHT22;11220;48.812;9.128;2022-09-09T10:02:46;22.00;90.50
22108;DHT22;11220;48.812;9.128;2022-09-09T10:05:27;22.00;90.50
22108;DHT22;11220;48.812;9.128;2022-09-09T10:08:11;22.00;90.50
22108;DHT22;11220;48.812;9.128;2022-09-09T10:11:04;22.00;90.50
22108;DHT22;11220;48.812;9.128;2022-09-09T10:13:53;22.00;90.50
22108;DHT22;11220;48.812;9.128;2022-09-09T10:16:41;22.00;90.50
22108;DHT22;11220;48.812;9.128;2022-09-09T10:19:14;22.10;90.70
22108;DHT22;11220;48.812;9.128;2022-09-09T10:30:52;22.00;90.50
22108;DHT22;11220;48.812;9.128;2022-09-09T10:38:40;22.00;87.10
22108;DHT22;11220;48.812;9.128;2022-09-09T10:41:11;21.90;85.80
22108;DHT22;11220;48.812;9.128;2022-09-09T10:44:02;21.90;84.90
22108;DHT22;11220;48.812;9.128;2022-09-09T10:52:38;22.00;85.80
22108;DHT22;11220;48.812;9.128;2022-09-09T10:55:18;22.00;85.90
22108;DHT22;11220;48.812;9.128;2022-09-09T10:57:47;22.10;85.80
22108;DHT22;11220;48.812;9.128;2022-09-09T11:00:20;22.10;85.50
22108;DHT22;11220;48.812;9.128;2022-09-09T11:02:58;22.10;85.50
22108;DHT22;11220;48.812;9.128;2022-09-09T11:05:27;22.10;85.00
22108;DHT22;11220;48.812;9.128;2022-09-09T11:08:08;22.00;83.90
22108;DHT22;11220;48.812;9.128;2022-09-09T11:19:11;21.90;80.80
22108;DHT22;11220;48.812;9.128;2022-09-09T11:21:44;21.80;80.80
22108;DHT22;11220;48.812;9.128;2022-09-09T11:24:16;21.80;81.30
22108;DHT22;11220;48.812;9.128;2022-09-09T11:26:54;21.80;81.40
22108;DHT22;11220;48.812;9.128;2022-09-09T11:32:16;21.70;81.40
22108;DHT22;11220;48.812;9.128;2022-09-09T11:40:23;21.70;81.40
22108;DHT22;11220;48.812;9.128;2022-09-09T11:42:49;21.70;79.90
22108;DHT22;11220;48.812;9.128;2022-09-09T11:45:27;21.70;79.70
22108;DHT22;11220;48.812;9.128;2022-09-09T11:48:04;21.70;80.20
22108;DHT22;11220;48.812;9.128;2022-09-09T11:50:33;21.60;79.00
22108;DHT22;11220;48.812;9.128;2022-09-09T11:53:17;21.60;79.00
22108;DHT22;11220;48.812;9.128;2022-09-09T11:55:46;21.70;79.20
22108;DHT22;11220;48.812;9.128;2022-09-09T12:00:46;21.60;79.20
22108;DHT22;11220;48.812;9.128;2022-09-09T12:03:41;21.60;79.90
22108;DHT22;11220;48.812;9.128;2022-09-09T12:06:13;21.70;80.60
22108;DHT22;11220;48.812;9.128;2022-09-09T12:08:42;21.90;81.40
22108;DHT22;11220;48.812;9.128;2022-09-09T12:11:08;21.80;81.70
22108;DHT22;11220;48.812;9.128;2022-09-09T12:13:34;22.40;82.40
22108;DHT22;11220;48.812;9.128;2022-09-09T12:16:01;21.90;82.40
22108;DHT22;11220;48.812;9.128;2022-09-09T12:18:40;22.00;82.70
22108;DHT22;11220;48.812;9.128;2022-09-09T12:21:33;22.00;82.90
22108;DHT22;11220;48.812;9.128;2022-09-09T12:24:10;22.00;83.10
22108;DHT22;11220;48.812;9.128;2022-09-09T12:26:43;22.00;83.40
22108;DHT22;11220;48.812;9.128;2022-09-09T12:32:07;22.10;84.00
22108;DHT22;11220;48.812;9.128;2022-09-09T12:34:40;22.10;84.30
22108;DHT22;11220;48.812;9.128;2022-09-09T12:37:14;22.20;84.70
22108;DHT22;11220;48.812;9.128;2022-09-09T12:40:19;22.20;84.90
22108;DHT22;11220;48.812;9.128;2022-09-09T12:42:46;22.20;85.30
22108;DHT22;11220;48.812;9.128;2022-09-09T12:45:23;22.20;85.60
22108;DHT22;11220;48.812;9.128;2022-09-09T12:47:51;22.30;85.90
22108;DHT22;11220;48.812;9.128;2022-09-09T12:52:49;22.60;86.60
22108;DHT22;11220;48.812;9.128;2022-09-09T12:55:18;22.40;86.70
22108;DHT22;11220;48.812;9.128;2022-09-09T12:57:44;22.40;86.90
22108;DHT22;11220;48.812;9.128;2022-09-09T13:00:16;22.40;87.10
22108;DHT22;11220;48.812;9.128;2022-09-09T13:02:53;22.40;87.30
22108;DHT22;11220;48.812;9.128;2022-09-09T13:05:22;22.70;87.70
22108;DHT22;11220;48.812;9.128;2022-09-09T13:07:48;22.50;87.70
22108;DHT22;11220;48.812;9.128;2022-09-09T13:10:24;22.50;87.80
22108;DHT22;11220;48.812;9.128;2022-09-09T13:12:52;22.50;88.00
22108;DHT22;11220;48.812;9.128;2022-09-09T13:15:22;22.50;88.10
22108;DHT22;11220;48.812;9.128;2022-09-09T13:18:06;22.60;88.20
22108;DHT22;11220;48.812;9.128;2022-09-09T13:20:35;22.60;88.30
22108;DHT22;11220;48.812;9.128;2022-09-09T13:23:02;22.70;88.50
22108;DHT22;11220;48.812;9.128;2022-09-09T13:25:28;22.60;88.40
22108;DHT22;11220;48.812;9.128;2022-09-09T13:28:02;22.70;88.60
22108;DHT22;11220;48.812;9.128;2022-09-09T13:30:36;22.70;88.70
22108;DHT22;11220;48.812;9.128;2022-09-09T13:36:08;22.70;88.80
22108;DHT22;11220;48.812;9.128;2022-09-09T13:38:40;22.80;88.90
22108;DHT22;11220;48.812;9.128;2022-09-09T13:41:29;22.80;89.00
22108;DHT22;11220;48.812;9.128;2022-09-09T13:43:56;22.80;89.00
22108;DHT22;11220;48.812;9.128;2022-09-09T13:46:36;22.90;89.10
22108;DHT22;11220;48.812;9.128;2022-09-09T13:51:43;22.90;89.20
22108;DHT22;11220;48.812;9.128;2022-09-09T13:54:13;22.90;89.30
22108;DHT22;11220;48.812;9.128;2022-09-09T13:56:40;22.90;89.30
22108;DHT22;11220;48.812;9.128;2022-09-09T13:59:11;22.90;89.30
22108;DHT22;11220;48.812;9.128;2022-09-09T14:01:37;23.30;89.60
22108;DHT22;11220;48.812;9.128;2022-09-09T14:04:03;22.90;89.40
22108;DHT22;11220;48.812;9.128;2022-09-09T14:06:30;23.00;89.40
22108;DHT22;11220;48.812;9.128;2022-09-09T14:08:57;23.00;89.40
22108;DHT22;11220;48.812;9.128;2022-09-09T14:11:23;23.00;89.40
22108;DHT22;11220;48.812;9.128;2022-09-09T14:13:48;23.40;89.60
22108;DHT22;11220;48.812;9.128;2022-09-09T14:16:17;23.00;89.30
22108;DHT22;11220;48.812;9.128;2022-09-09T14:18:43;22.90;89.30
22108;DHT22;11220;48.812;9.128;2022-09-09T14:21:09;23.00;89.30
22108;DHT22;11220;48.812;9.128;2022-09-09T14:23:35;23.50;89.60
22108;DHT22;11220;48.812;9.128;2022-09-09T14:26:01;23.10;89.40
22108;DHT22;11220;48.812;9.128;2022-09-09T14:28:26;23.10;89.40
22108;DHT22;11220;48.812;9.128;2022-09-09T14:30:53;23.20;89.40
22108;DHT22;11220;48.812;9.128;2022-09-09T14:33:19;23.50;89.50
22108;DHT22;11220;48.812;9.128;2022-09-09T14:35:45;23.20;89.30
22108;DHT22;11220;48.812;9.128;2022-09-09T14:38:10;23.20;89.40
22108;DHT22;11220;48.812;9.128;2022-09-09T14:40:37;23.30;89.30
22108;DHT22;11220;48.812;9.128;2022-09-09T14:43:04;23.30;89.40
22108;DHT22;11220;48.812;9.128;2022-09-09T14:45:31;23.30;89.40
22108;DHT22;11220;48.812;9.128;2022-09-09T14:47:56;23.30;89.40
22108;DHT22;11220;48.812;9.128;2022-09-09T14:50:23;23.30;89.40
22108;DHT22;11220;48.812;9.128;2022-09-09T14:52:49;23.30;89.30
22108;DHT22;11220;48.812;9.128;2022-09-09T14:55:15;23.40;89.30
22108;DHT22;11220;48.812;9.128;2022-09-09T14:57:41;23.40;89.40
22108;DHT22;11220;48.812;9.128;2022-09-09T15:00:08;23.50;89.50
22108;DHT22;11220;48.812;9.128;2022-09-09T15:02:35;23.40;89.30
22108;DHT22;11220;48.812;9.128;2022-09-09T15:05:00;23.50;89.40
22108;DHT22;11220;48.812;9.128;2022-09-09T15:07:26;23.50;89.40
22108;DHT22;11220;48.812;9.128;2022-09-09T15:09:54;23.40;89.30
22108;DHT22;11220;48.812;9.128;2022-09-09T15:12:19;23.70;89.50
22108;DHT22;11220;48.812;9.128;2022-09-09T15:14:46;23.50;89.40
22108;DHT22;11220;48.812;9.128;2022-09-09T15:17:12;23.60;89.60
22108;DHT22;11220;48.812;9.128;2022-09-09T15:19:38;23.40;89.40
22108;DHT22;11220;48.812;9.128;2022-09-09T15:22:05;23.70;89.60
22108;DHT22;11220;48.812;9.128;2022-09-09T15:24:34;23.40;89.40
22108;DHT22;11220;48.812;9.128;2022-09-09T15:27:01;23.30;89.40
22108;DHT22;11220;48.812;9.128;2022-09-09T15:29:27;23.40;90.10
22108;DHT22;11220;48.812;9.128;2022-09-09T15:31:55;23.30;89.40
22108;DHT22;11220;48.812;9.128;2022-09-09T15:34:21;23.30;89.40
22108;DHT22;11220;48.812;9.128;2022-09-09T15:36:47;23.40;89.40
22108;DHT22;11220;48.812;9.128;2022-09-09T15:39:15;23.30;89.30
22108;DHT22;11220;48.812;9.128;2022-09-09T15:41:42;23.30;89.20
22108;DHT22;11220;48.812;9.128;2022-09-09T15:44:09;23.30;89.10
22108;DHT22;11220;48.812;9.128;2022-09-09T15:46:39;23.90;89.50
22108;DHT22;11220;48.812;9.128;2022-09-09T15:51:40;23.30;89.10
22108;DHT22;11220;48.812;9.128;2022-09-09T15:54:07;24.10;89.50
22108;DHT22;11220;48.812;9.128;2022-09-09T15:56:33;23.30;89.00
22108;DHT22;11220;48.812;9.128;2022-09-09T15:59:00;24.00;89.40
22108;DHT22;11220;48.812;9.128;2022-09-09T16:01:28;23.30;89.00
22108;DHT22;11220;48.812;9.128;2022-09-09T16:03:54;24.30;89.60
22108;DHT22;11220;48.812;9.128;2022-09-09T16:06:21;24.10;89.40
22108;DHT22;11220;48.812;9.128;2022-09-09T16:08:49;23.60;89.00
22108;DHT22;11220;48.812;9.128;2022-09-09T16:11:20;23.10;88.70
22108;DHT22;11220;48.812;9.128;2022-09-09T16:13:48;23.30;88.80
22108;DHT22;11220;48.812;9.128;2022-09-09T16:16:15;23.30;88.70
22108;DHT22;11220;48.812;9.128;2022-09-09T16:18:43;23.20;88.60
22108;DHT22;11220;48.812;9.128;2022-09-09T16:21:23;23.20;88.60
22108;DHT22;11220;48.812;9.128;2022-09-09T16:23:51;23.20;88.60
22108;DHT22;11220;48.812;9.128;2022-09-09T16:26:19;23.10;88.50
22108;DHT22;11220;48.812;9.128;2022-09-09T16:28:45;23.30;88.60
22108;DHT22;11220;48.812;9.128;2022-09-09T16:31:14;23.10;88.50
22108;DHT22;11220;48.812;9.128;2022-09-09T16:33:40;23.50;88.70
22108;DHT22;11220;48.812;9.128;2022-09-09T16:36:08;23.60;88.80
22108;DHT22;11220;48.812;9.128;2022-09-09T16:38:36;23.10;88.40
22108;DHT22;11220;48.812;9.128;2022-09-09T16:41:02;23.10;88.40
22108;DHT22;11220;48.812;9.128;2022-09-09T16:43:30;23.10;88.30
22108;DHT22;11220;48.812;9.128;2022-09-09T16:45:56;23.10;88.30
22108;DHT22;11220;48.812;9.128;2022-09-09T16:48:21;23.10;88.30
22108;DHT22;11220;48.812;9.128;2022-09-09T16:50:47;23.00;88.20
22108;DHT22;11220;48.812;9.128;2022-09-09T16:53:13;23.10;88.30
22108;DHT22;11220;48.812;9.128;2022-09-09T16:55:40;23.50;88.50
22108;DHT22;11220;48.812;9.128;2022-09-09T16:58:15;23.10;88.20
22108;DHT22;11220;48.812;9.128;2022-09-09T17:00:40;23.10;88.20
22108;DHT22;11220;48.812;9.128;2022-09-09T17:03:06;23.30;88.30
22108;DHT22;11220;48.812;9.128;2022-09-09T17:05:31;23.70;88.50
22108;DHT22;11220;48.812;9.128;2022-09-09T17:07:57;23.10;88.00
22108;DHT22;11220;48.812;9.128;2022-09-09T17:10:24;23.10;87.90
22108;DHT22;11220;48.812;9.128;2022-09-09T17:12:50;23.10;87.80
22108;DHT22;11220;48.812;9.128;2022-09-09T17:15:16;23.10;87.70
22108;DHT22;11220;48.812;9.128;2022-09-09T17:17:43;23.10;87.60
22108;DHT22;11220;48.812;9.128;2022-09-09T17:20:10;23.10;87.40
22108;DHT22;11220;48.812;9.128;2022-09-09T17:22:36;23.20;87.40
22108;DHT22;11220;48.812;9.128;2022-09-09T17:25:02;23.00;87.20
22108;DHT22;11220;48.812;9.128;2022-09-09T17:27:28;23.00;87.00
22108;DHT22;11220;48.812;9.128;2022-09-09T17:29:56;23.00;86.90
22108;DHT22;11220;48.812;9.128;2022-09-09T17:32:22;23.30;87.00
22108;DHT22;11220;48.812;9.128;2022-09-09T17:34:48;22.90;86.50
22108;DHT22;11220;48.812;9.128;2022-09-09T17:37:13;23.80;86.90
22108;DHT22;11220;48.812;9.128;2022-09-09T17:39:39;22.90;86.10
22108;DHT22;11220;48.812;9.128;2022-09-09T17:42:05;22.90;86.00
22108;DHT22;11220;48.812;9.128;2022-09-09T17:44:32;22.90;85.80